WMT3170 EDLW-LMML
Flight info
| Callsign | WMT3170 |
|---|---|
| Flight time | 2h 21m |
| Altitude | 37000 |
| Route | GMH8Q GMH Q603 TESGA L603 BOMBI T721 SUNEG L607 UTABA M738 NATAG DCT LORLO DCT ADOSA DCT GAVRA DCT PNZ DCT GIANO DCT MARON DCT DIRKA |
| Aircraft | A320/M-SDE3FGHIRWY/LB1 |
Departure
| Time | 2026-04-28 19:22 |
|---|---|
| Airport | Dortmund Airport (EDLW) |
Arrival
| Time | 2026-04-28 21:44 |
|---|---|
| Airport | Malta International Airport (LMML) |
| Time | Latitude | Longitude | Altitude | Speed | Heading |
|---|---|---|---|---|---|
| 2026-04-28 18:46 | 51.51558 | 7.61237 | 414 ft | 0 kts | 330° |
| 2026-04-28 18:50 | 51.51557 | 7.61237 | 422 ft | 0 kts | 330° |
| 2026-04-28 18:50 | 51.51558 | 7.61237 | 422 ft | 0 kts | 330° |
| 2026-04-28 18:51 | 51.51557 | 7.61237 | 422 ft | 0 kts | 330° |
| 2026-04-28 19:17 | 51.51564 | 7.61232 | 422 ft | 2 kts | 330° |
| 2026-04-28 19:17 | 51.51581 | 7.61215 | 415 ft | 4 kts | 330° |
| 2026-04-28 19:17 | 51.51607 | 7.61184 | 418 ft | 5 kts | 306° |
| 2026-04-28 19:17 | 51.51605 | 7.61124 | 423 ft | 7 kts | 250° |
| 2026-04-28 19:18 | 51.51581 | 7.61024 | 413 ft | 10 kts | 248° |
| 2026-04-28 19:18 | 51.51546 | 7.60919 | 417 ft | 11 kts | 239° |
| 2026-04-28 19:18 | 51.51505 | 7.60808 | 423 ft | 12 kts | 241° |
| 2026-04-28 19:18 | 51.51464 | 7.60687 | 422 ft | 13 kts | 241° |
| 2026-04-28 19:19 | 51.51425 | 7.60577 | 425 ft | 7 kts | 240° |
| 2026-04-28 19:19 | 51.51423 | 7.60572 | 425 ft | 0 kts | 240° |
| 2026-04-28 19:20 | 51.51420 | 7.60564 | 426 ft | 2 kts | 240° |
| 2026-04-28 19:20 | 51.51405 | 7.60523 | 419 ft | 6 kts | 239° |
| 2026-04-28 19:20 | 51.51376 | 7.60444 | 426 ft | 10 kts | 240° |
| 2026-04-28 19:21 | 51.51364 | 7.60329 | 425 ft | 13 kts | 289° |
| 2026-04-28 19:21 | 51.51446 | 7.60241 | 430 ft | 15 kts | 348° |
| 2026-04-28 19:21 | 51.51514 | 7.60321 | 421 ft | 0 kts | 59° |
| 2026-04-28 19:21 | 51.51517 | 7.60329 | 425 ft | 3 kts | 59° |
| 2026-04-28 19:22 | 51.51633 | 7.60657 | 419 ft | 70 kts | 60° |
| 2026-04-28 19:22 | 51.51726 | 7.60921 | 418 ft | 90 kts | 60° |
| 2026-04-28 19:22 | 51.52399 | 7.62858 | 934 ft | 124 kts | 63° |
| 2026-04-28 19:22 | 51.52825 | 7.64127 | 1410 ft | 131 kts | 61° |
| 2026-04-28 19:23 | 51.53274 | 7.65402 | 1962 ft | 131 kts | 60° |
| 2026-04-28 19:23 | 51.53736 | 7.66705 | 2351 ft | 142 kts | 61° |
| 2026-04-28 19:23 | 51.54261 | 7.68187 | 2535 ft | 164 kts | 62° |
| 2026-04-28 19:23 | 51.54863 | 7.69886 | 2753 ft | 187 kts | 61° |
| 2026-04-28 19:24 | 51.55545 | 7.71805 | 3070 ft | 207 kts | 61° |
| 2026-04-28 19:24 | 51.56075 | 7.74065 | 3416 ft | 226 kts | 89° |
| 2026-04-28 19:24 | 51.55594 | 7.76476 | 3997 ft | 240 kts | 125° |
| 2026-04-28 19:24 | 51.54286 | 7.78311 | 4637 ft | 259 kts | 144° |
| 2026-04-28 19:25 | 51.52604 | 7.79455 | 5427 ft | 272 kts | 171° |
| 2026-04-28 19:25 | 51.50704 | 7.79022 | 6219 ft | 282 kts | 201° |
| 2026-04-28 19:25 | 51.48909 | 7.77742 | 7107 ft | 283 kts | 202° |
| 2026-04-28 19:25 | 51.47065 | 7.76567 | 7941 ft | 286 kts | 201° |
| 2026-04-28 19:26 | 51.45181 | 7.75528 | 8810 ft | 288 kts | 194° |
| 2026-04-28 19:26 | 51.43183 | 7.75177 | 9582 ft | 293 kts | 178° |
| 2026-04-28 19:26 | 51.41160 | 7.75668 | 10370 ft | 296 kts | 163° |
| 2026-04-28 19:26 | 51.39174 | 7.76767 | 10781 ft | 313 kts | 161° |
| 2026-04-28 19:27 | 51.37049 | 7.77976 | 10995 ft | 335 kts | 161° |
| 2026-04-28 19:27 | 51.34808 | 7.79240 | 11413 ft | 346 kts | 162° |
| 2026-04-28 19:27 | 51.32512 | 7.80527 | 12001 ft | 352 kts | 162° |
| 2026-04-28 19:27 | 51.30190 | 7.81830 | 12688 ft | 355 kts | 161° |
| 2026-04-28 19:28 | 51.27855 | 7.83142 | 13387 ft | 357 kts | 162° |
| 2026-04-28 19:28 | 51.25532 | 7.84445 | 14041 ft | 361 kts | 162° |
| 2026-04-28 19:28 | 51.23164 | 7.85845 | 14614 ft | 365 kts | 158° |
| 2026-04-28 19:28 | 51.20832 | 7.87471 | 15209 ft | 368 kts | 157° |
| 2026-04-28 19:29 | 51.18491 | 7.89197 | 15787 ft | 371 kts | 156° |
| 2026-04-28 19:29 | 51.16942 | 7.90366 | 16163 ft | 373 kts | 156° |
| 2026-04-28 19:29 | 51.13784 | 7.92764 | 16905 ft | 378 kts | 156° |
| 2026-04-28 19:29 | 51.11393 | 7.94570 | 17472 ft | 381 kts | 156° |
| 2026-04-28 19:30 | 51.08987 | 7.96371 | 18037 ft | 385 kts | 157° |
| 2026-04-28 19:30 | 51.07377 | 7.97567 | 18408 ft | 387 kts | 157° |
| 2026-04-28 19:30 | 51.04924 | 7.99378 | 18880 ft | 391 kts | 157° |
| 2026-04-28 19:30 | 51.02444 | 8.01204 | 19366 ft | 394 kts | 157° |
| 2026-04-28 19:31 | 50.99948 | 8.03040 | 19849 ft | 398 kts | 157° |
| 2026-04-28 19:31 | 50.97425 | 8.04895 | 20361 ft | 400 kts | 157° |
| 2026-04-28 19:31 | 50.94889 | 8.06758 | 20882 ft | 403 kts | 157° |
| 2026-04-28 19:31 | 50.92346 | 8.08622 | 21345 ft | 406 kts | 158° |
| 2026-04-28 19:32 | 50.89763 | 8.10511 | 21804 ft | 409 kts | 158° |
| 2026-04-28 19:32 | 50.87170 | 8.12405 | 22254 ft | 412 kts | 158° |
| 2026-04-28 19:32 | 50.84560 | 8.14309 | 22696 ft | 415 kts | 158° |
| 2026-04-28 19:32 | 50.81928 | 8.16229 | 23140 ft | 418 kts | 158° |
| 2026-04-28 19:33 | 50.79276 | 8.18167 | 23567 ft | 421 kts | 158° |
| 2026-04-28 19:33 | 50.76605 | 8.20122 | 23962 ft | 425 kts | 158° |
| 2026-04-28 19:33 | 50.73917 | 8.22087 | 24336 ft | 427 kts | 158° |
| 2026-04-28 19:33 | 50.71207 | 8.24061 | 24719 ft | 429 kts | 158° |
| 2026-04-28 19:34 | 50.68488 | 8.26033 | 25084 ft | 432 kts | 158° |
| 2026-04-28 19:34 | 50.65780 | 8.27991 | 25454 ft | 434 kts | 158° |
| 2026-04-28 19:34 | 50.62993 | 8.30001 | 25832 ft | 436 kts | 158° |
| 2026-04-28 19:34 | 50.60227 | 8.31998 | 26200 ft | 438 kts | 158° |
| 2026-04-28 19:35 | 50.57485 | 8.33979 | 26544 ft | 440 kts | 158° |
| 2026-04-28 19:35 | 50.54694 | 8.35994 | 26893 ft | 442 kts | 158° |
| 2026-04-28 19:35 | 50.51891 | 8.38017 | 27255 ft | 445 kts | 158° |
| 2026-04-28 19:35 | 50.49072 | 8.40051 | 27600 ft | 447 kts | 158° |
| 2026-04-28 19:36 | 50.46235 | 8.42096 | 27936 ft | 450 kts | 158° |
| 2026-04-28 19:36 | 50.43379 | 8.44148 | 28286 ft | 452 kts | 159° |
| 2026-04-28 19:36 | 50.40513 | 8.46202 | 28643 ft | 454 kts | 159° |
| 2026-04-28 19:36 | 50.37633 | 8.48259 | 29000 ft | 456 kts | 159° |
| 2026-04-28 19:37 | 50.34734 | 8.50325 | 29340 ft | 459 kts | 159° |
| 2026-04-28 19:37 | 50.32803 | 8.51699 | 29523 ft | 460 kts | 159° |
| 2026-04-28 19:37 | 50.28893 | 8.54476 | 29953 ft | 463 kts | 159° |
| 2026-04-28 19:37 | 50.25951 | 8.56566 | 30343 ft | 463 kts | 159° |
| 2026-04-28 19:38 | 50.23019 | 8.58650 | 30744 ft | 462 kts | 159° |
| 2026-04-28 19:38 | 50.20093 | 8.60730 | 31131 ft | 462 kts | 159° |
| 2026-04-28 19:38 | 50.17169 | 8.62810 | 31514 ft | 461 kts | 159° |
| 2026-04-28 19:38 | 50.14247 | 8.64887 | 31905 ft | 461 kts | 159° |
| 2026-04-28 19:39 | 50.11361 | 8.66929 | 32117 ft | 462 kts | 159° |
| 2026-04-28 19:39 | 50.08436 | 8.68991 | 32132 ft | 461 kts | 159° |
| 2026-04-28 19:39 | 50.02594 | 8.73098 | 32141 ft | 461 kts | 159° |
| 2026-04-28 19:40 | 49.96745 | 8.77211 | 32149 ft | 461 kts | 159° |
| 2026-04-28 19:40 | 49.90899 | 8.81311 | 32632 ft | 461 kts | 159° |
| 2026-04-28 19:41 | 49.87981 | 8.83353 | 33056 ft | 460 kts | 159° |
| 2026-04-28 19:41 | 49.85061 | 8.85390 | 33437 ft | 460 kts | 159° |
| 2026-04-28 19:41 | 49.82152 | 8.87416 | 33859 ft | 459 kts | 159° |
| 2026-04-28 19:41 | 49.79239 | 8.89443 | 34253 ft | 458 kts | 159° |
| 2026-04-28 19:42 | 49.76281 | 8.91191 | 34580 ft | 452 kts | 169° |
| 2026-04-28 19:42 | 49.73231 | 8.92368 | 34885 ft | 452 kts | 170° |
| 2026-04-28 19:42 | 49.70179 | 8.93518 | 35191 ft | 451 kts | 171° |
| 2026-04-28 19:42 | 49.68158 | 8.94270 | 35392 ft | 451 kts | 171° |
| 2026-04-28 19:43 | 49.64089 | 8.95779 | 35792 ft | 450 kts | 171° |
| 2026-04-28 19:43 | 49.61041 | 8.96910 | 36055 ft | 450 kts | 171° |
| 2026-04-28 19:43 | 49.58038 | 8.98029 | 36321 ft | 449 kts | 171° |
| 2026-04-28 19:43 | 49.55001 | 8.99167 | 36623 ft | 449 kts | 171° |
| 2026-04-28 19:44 | 49.51962 | 9.00304 | 36857 ft | 450 kts | 171° |
| 2026-04-28 19:44 | 49.48913 | 9.01443 | 37078 ft | 451 kts | 171° |
| 2026-04-28 19:44 | 49.42765 | 9.03716 | 37163 ft | 458 kts | 171° |
| 2026-04-28 19:45 | 49.36549 | 9.06013 | 37173 ft | 460 kts | 170° |
| 2026-04-28 19:45 | 49.30319 | 9.08326 | 37171 ft | 460 kts | 170° |
| 2026-04-28 19:46 | 49.24095 | 9.10619 | 37171 ft | 460 kts | 170° |
| 2026-04-28 19:46 | 49.17861 | 9.12910 | 37173 ft | 461 kts | 170° |
| 2026-04-28 19:47 | 49.11626 | 9.15197 | 37159 ft | 461 kts | 170° |
| 2026-04-28 19:47 | 49.05385 | 9.17472 | 37166 ft | 461 kts | 170° |
| 2026-04-28 19:48 | 48.99153 | 9.19750 | 37154 ft | 461 kts | 170° |
| 2026-04-28 19:48 | 48.92910 | 9.22017 | 37117 ft | 461 kts | 170° |
| 2026-04-28 19:49 | 48.86670 | 9.24278 | 37107 ft | 462 kts | 170° |
| 2026-04-28 19:49 | 48.80413 | 9.26542 | 37086 ft | 462 kts | 170° |
| 2026-04-28 19:50 | 48.71008 | 9.29933 | 37086 ft | 463 kts | 170° |
| 2026-04-28 19:51 | 48.64733 | 9.32189 | 37077 ft | 464 kts | 170° |
| 2026-04-28 19:51 | 48.58486 | 9.34420 | 37091 ft | 464 kts | 170° |
| 2026-04-28 19:52 | 48.52194 | 9.36671 | 37115 ft | 465 kts | 170° |
| 2026-04-28 19:52 | 48.45899 | 9.38922 | 37154 ft | 465 kts | 170° |
| 2026-04-28 19:53 | 48.39601 | 9.41170 | 37157 ft | 465 kts | 170° |
| 2026-04-28 19:53 | 48.33294 | 9.43406 | 37147 ft | 465 kts | 170° |
| 2026-04-28 19:54 | 48.26992 | 9.45638 | 37145 ft | 465 kts | 170° |
| 2026-04-28 19:54 | 48.20713 | 9.48057 | 37125 ft | 466 kts | 167° |
| 2026-04-28 19:55 | 48.14557 | 9.51149 | 37126 ft | 471 kts | 153° |
| 2026-04-28 19:55 | 48.08985 | 9.56330 | 37116 ft | 470 kts | 149° |
| 2026-04-28 19:56 | 48.03455 | 9.61622 | 37102 ft | 472 kts | 149° |
| 2026-04-28 19:56 | 47.97932 | 9.66910 | 37117 ft | 472 kts | 149° |
| 2026-04-28 19:57 | 47.92402 | 9.72174 | 37124 ft | 471 kts | 149° |
| 2026-04-28 19:57 | 47.86856 | 9.77420 | 37126 ft | 471 kts | 149° |
| 2026-04-28 19:58 | 47.81349 | 9.82627 | 37133 ft | 472 kts | 149° |
| 2026-04-28 19:58 | 47.75805 | 9.87863 | 37127 ft | 472 kts | 149° |
| 2026-04-28 19:59 | 47.70264 | 9.93085 | 37126 ft | 472 kts | 149° |
| 2026-04-28 19:59 | 47.64709 | 9.98297 | 37137 ft | 472 kts | 149° |
| 2026-04-28 20:00 | 47.59150 | 10.03501 | 37134 ft | 472 kts | 149° |
| 2026-04-28 20:00 | 47.53598 | 10.08694 | 37142 ft | 472 kts | 149° |
| 2026-04-28 20:01 | 47.48044 | 10.13871 | 37144 ft | 472 kts | 149° |
| 2026-04-28 20:01 | 47.42475 | 10.19037 | 37140 ft | 472 kts | 149° |
| 2026-04-28 20:02 | 47.36905 | 10.24193 | 37149 ft | 472 kts | 149° |
| 2026-04-28 20:02 | 47.31342 | 10.29339 | 37146 ft | 472 kts | 149° |
| 2026-04-28 20:03 | 47.25779 | 10.34472 | 37141 ft | 472 kts | 149° |
| 2026-04-28 20:03 | 47.20206 | 10.39598 | 37165 ft | 472 kts | 149° |
| 2026-04-28 20:04 | 47.14639 | 10.44703 | 37147 ft | 472 kts | 150° |
| 2026-04-28 20:04 | 47.09065 | 10.49798 | 37140 ft | 472 kts | 149° |
| 2026-04-28 20:05 | 47.03251 | 10.53995 | 37141 ft | 467 kts | 165° |
| 2026-04-28 20:05 | 46.97053 | 10.56789 | 37133 ft | 466 kts | 165° |
| 2026-04-28 20:06 | 46.90849 | 10.59584 | 37125 ft | 466 kts | 166° |
| 2026-04-28 20:06 | 46.84657 | 10.62379 | 37120 ft | 465 kts | 165° |
| 2026-04-28 20:07 | 46.78477 | 10.65169 | 37126 ft | 464 kts | 165° |
| 2026-04-28 20:07 | 46.72303 | 10.67929 | 37109 ft | 464 kts | 167° |
| 2026-04-28 20:08 | 46.66055 | 10.70234 | 37095 ft | 462 kts | 170° |
| 2026-04-28 20:08 | 46.59766 | 10.72131 | 37104 ft | 462 kts | 171° |
| 2026-04-28 20:09 | 46.53475 | 10.74049 | 37090 ft | 462 kts | 171° |
| 2026-04-28 20:09 | 46.47177 | 10.76094 | 37106 ft | 463 kts | 170° |
| 2026-04-28 20:10 | 46.40901 | 10.78166 | 37090 ft | 462 kts | 170° |
| 2026-04-28 20:10 | 46.34631 | 10.80213 | 37122 ft | 462 kts | 170° |
| 2026-04-28 20:11 | 46.28364 | 10.82235 | 37141 ft | 462 kts | 170° |
| 2026-04-28 20:11 | 46.22095 | 10.84257 | 37147 ft | 462 kts | 170° |
| 2026-04-28 20:12 | 46.15826 | 10.86276 | 37132 ft | 462 kts | 171° |
| 2026-04-28 20:12 | 46.09544 | 10.88291 | 37100 ft | 462 kts | 171° |
| 2026-04-28 20:13 | 46.03266 | 10.90301 | 37096 ft | 463 kts | 171° |
| 2026-04-28 20:13 | 45.96967 | 10.92313 | 37084 ft | 463 kts | 171° |
| 2026-04-28 20:14 | 45.91732 | 10.93984 | 37092 ft | 463 kts | 171° |
| 2026-04-28 20:14 | 45.85450 | 10.95986 | 37086 ft | 463 kts | 171° |
| 2026-04-28 20:15 | 45.79160 | 10.97983 | 37073 ft | 463 kts | 171° |
| 2026-04-28 20:15 | 45.72875 | 10.99968 | 37075 ft | 463 kts | 171° |
| 2026-04-28 20:16 | 45.66586 | 11.01968 | 37065 ft | 463 kts | 171° |
| 2026-04-28 20:16 | 45.60327 | 11.04196 | 37040 ft | 464 kts | 166° |
| 2026-04-28 20:17 | 45.54160 | 11.06974 | 37036 ft | 465 kts | 164° |
| 2026-04-28 20:17 | 45.48055 | 11.09846 | 37036 ft | 465 kts | 165° |
| 2026-04-28 20:18 | 45.41894 | 11.12619 | 37021 ft | 464 kts | 166° |
| 2026-04-28 20:18 | 45.35717 | 11.15295 | 37032 ft | 464 kts | 166° |
| 2026-04-28 20:19 | 45.29543 | 11.17958 | 37048 ft | 464 kts | 166° |
| 2026-04-28 20:19 | 45.23372 | 11.20638 | 37051 ft | 464 kts | 166° |
| 2026-04-28 20:20 | 45.17205 | 11.23326 | 37045 ft | 463 kts | 166° |
| 2026-04-28 20:20 | 45.11043 | 11.26004 | 37046 ft | 463 kts | 166° |
| 2026-04-28 20:21 | 45.04877 | 11.28671 | 37051 ft | 463 kts | 166° |
| 2026-04-28 20:21 | 44.98716 | 11.31336 | 37039 ft | 463 kts | 166° |
| 2026-04-28 20:22 | 44.92556 | 11.33989 | 37046 ft | 463 kts | 166° |
| 2026-04-28 20:22 | 44.86399 | 11.36636 | 37045 ft | 463 kts | 166° |
| 2026-04-28 20:23 | 44.80242 | 11.39282 | 37028 ft | 462 kts | 166° |
| 2026-04-28 20:23 | 44.74088 | 11.41915 | 37036 ft | 462 kts | 166° |
| 2026-04-28 20:24 | 44.67934 | 11.44548 | 37030 ft | 462 kts | 166° |
| 2026-04-28 20:24 | 44.61782 | 11.47168 | 37027 ft | 462 kts | 166° |
| 2026-04-28 20:25 | 44.55633 | 11.49790 | 37022 ft | 462 kts | 166° |
| 2026-04-28 20:25 | 44.49487 | 11.52392 | 37028 ft | 461 kts | 166° |
| 2026-04-28 20:26 | 44.43344 | 11.54982 | 37032 ft | 461 kts | 166° |
| 2026-04-28 20:26 | 44.37199 | 11.57576 | 37035 ft | 461 kts | 166° |
| 2026-04-28 20:27 | 44.31097 | 11.60158 | 37048 ft | 461 kts | 166° |
| 2026-04-28 20:27 | 44.24916 | 11.62763 | 37053 ft | 461 kts | 166° |
| 2026-04-28 20:28 | 44.18808 | 11.65325 | 37053 ft | 461 kts | 166° |
| 2026-04-28 20:28 | 44.12662 | 11.67898 | 37066 ft | 461 kts | 166° |
| 2026-04-28 20:29 | 44.06519 | 11.70458 | 37062 ft | 461 kts | 166° |
| 2026-04-28 20:29 | 44.00374 | 11.73019 | 37048 ft | 461 kts | 166° |
| 2026-04-28 20:30 | 43.94237 | 11.75580 | 37052 ft | 460 kts | 166° |
| 2026-04-28 20:30 | 43.88101 | 11.78133 | 37050 ft | 460 kts | 166° |
| 2026-04-28 20:31 | 43.81955 | 11.80673 | 37053 ft | 461 kts | 166° |
| 2026-04-28 20:31 | 43.75815 | 11.83206 | 37050 ft | 460 kts | 166° |
| 2026-04-28 20:32 | 43.69677 | 11.85750 | 37054 ft | 460 kts | 166° |
| 2026-04-28 20:32 | 43.63536 | 11.88289 | 37060 ft | 461 kts | 166° |
| 2026-04-28 20:33 | 43.57392 | 11.90824 | 37056 ft | 461 kts | 166° |
| 2026-04-28 20:33 | 43.51251 | 11.93353 | 37056 ft | 461 kts | 166° |
| 2026-04-28 20:34 | 43.45112 | 11.95877 | 37059 ft | 461 kts | 166° |
| 2026-04-28 20:34 | 43.38961 | 11.98394 | 37046 ft | 461 kts | 166° |
| 2026-04-28 20:35 | 43.32823 | 12.00895 | 37048 ft | 461 kts | 166° |
| 2026-04-28 20:35 | 43.26675 | 12.03395 | 37048 ft | 460 kts | 166° |
| 2026-04-28 20:36 | 43.20538 | 12.05899 | 37048 ft | 460 kts | 166° |
| 2026-04-28 20:36 | 43.14394 | 12.08412 | 37044 ft | 460 kts | 166° |
| 2026-04-28 20:37 | 43.08254 | 12.10903 | 37050 ft | 460 kts | 166° |
| 2026-04-28 20:37 | 43.02144 | 12.13365 | 37065 ft | 461 kts | 166° |
| 2026-04-28 20:38 | 42.95999 | 12.15843 | 37048 ft | 460 kts | 166° |
| 2026-04-28 20:38 | 42.89849 | 12.18324 | 37055 ft | 460 kts | 166° |
| 2026-04-28 20:39 | 42.83711 | 12.20799 | 37063 ft | 461 kts | 167° |
| 2026-04-28 20:39 | 42.77561 | 12.23265 | 37067 ft | 460 kts | 167° |
| 2026-04-28 20:40 | 42.71415 | 12.25722 | 37064 ft | 460 kts | 167° |
| 2026-04-28 20:40 | 42.65272 | 12.28168 | 37073 ft | 460 kts | 167° |
| 2026-04-28 20:41 | 42.59126 | 12.30627 | 37070 ft | 460 kts | 166° |
| 2026-04-28 20:41 | 42.52987 | 12.33080 | 37056 ft | 460 kts | 167° |
| 2026-04-28 20:42 | 42.46856 | 12.35522 | 37063 ft | 459 kts | 167° |
| 2026-04-28 20:42 | 42.40720 | 12.37947 | 37069 ft | 459 kts | 167° |
| 2026-04-28 20:43 | 42.34639 | 12.40340 | 37070 ft | 458 kts | 167° |
| 2026-04-28 20:43 | 42.28510 | 12.42756 | 37065 ft | 459 kts | 167° |
| 2026-04-28 20:44 | 42.22388 | 12.45164 | 37066 ft | 459 kts | 167° |
| 2026-04-28 20:44 | 42.16258 | 12.47577 | 37064 ft | 459 kts | 167° |
| 2026-04-28 20:45 | 42.10126 | 12.49988 | 37068 ft | 459 kts | 167° |
| 2026-04-28 20:45 | 42.03999 | 12.52386 | 37065 ft | 459 kts | 167° |
| 2026-04-28 20:46 | 41.97873 | 12.54780 | 37067 ft | 459 kts | 167° |
| 2026-04-28 20:46 | 41.91744 | 12.57164 | 37058 ft | 459 kts | 167° |
| 2026-04-28 20:47 | 41.85608 | 12.59550 | 37064 ft | 459 kts | 167° |
| 2026-04-28 20:47 | 41.79478 | 12.61939 | 37067 ft | 458 kts | 167° |
| 2026-04-28 20:48 | 41.73389 | 12.64303 | 37067 ft | 458 kts | 167° |
| 2026-04-28 20:48 | 41.67268 | 12.66673 | 37051 ft | 458 kts | 167° |
| 2026-04-28 20:49 | 41.61143 | 12.69035 | 37061 ft | 458 kts | 167° |
| 2026-04-28 20:49 | 41.55019 | 12.71405 | 37067 ft | 458 kts | 167° |
| 2026-04-28 20:50 | 41.48901 | 12.73758 | 37059 ft | 457 kts | 167° |
| 2026-04-28 20:50 | 41.42771 | 12.76067 | 37053 ft | 455 kts | 172° |
| 2026-04-28 20:51 | 41.36549 | 12.77530 | 37060 ft | 453 kts | 174° |
| 2026-04-28 20:51 | 41.30325 | 12.78877 | 37064 ft | 453 kts | 175° |
| 2026-04-28 20:52 | 41.24094 | 12.80220 | 37050 ft | 454 kts | 175° |
| 2026-04-28 20:52 | 41.17854 | 12.81577 | 37056 ft | 454 kts | 175° |
| 2026-04-28 20:53 | 41.08530 | 12.83630 | 37063 ft | 455 kts | 174° |
| 2026-04-28 20:53 | 41.02284 | 12.84995 | 37048 ft | 455 kts | 175° |
| 2026-04-28 20:54 | 40.96036 | 12.86355 | 37060 ft | 455 kts | 175° |
| 2026-04-28 20:54 | 40.89786 | 12.87712 | 37065 ft | 455 kts | 175° |
| 2026-04-28 20:55 | 40.83526 | 12.89067 | 37049 ft | 455 kts | 175° |
| 2026-04-28 20:55 | 40.77339 | 12.90419 | 37038 ft | 453 kts | 175° |
| 2026-04-28 20:56 | 40.71107 | 12.91766 | 37036 ft | 454 kts | 175° |
| 2026-04-28 20:56 | 40.64865 | 12.93103 | 37036 ft | 454 kts | 175° |
| 2026-04-28 20:57 | 40.58634 | 12.94439 | 37024 ft | 454 kts | 175° |
| 2026-04-28 20:57 | 40.52398 | 12.95779 | 37009 ft | 454 kts | 175° |
| 2026-04-28 20:58 | 40.46159 | 12.97115 | 37022 ft | 454 kts | 175° |
| 2026-04-28 20:58 | 40.39923 | 12.98450 | 37029 ft | 454 kts | 175° |
| 2026-04-28 20:59 | 40.33690 | 12.99789 | 37012 ft | 454 kts | 175° |
| 2026-04-28 20:59 | 40.27503 | 13.01118 | 37005 ft | 454 kts | 175° |
| 2026-04-28 21:00 | 40.21274 | 13.02437 | 37006 ft | 454 kts | 175° |
| 2026-04-28 21:00 | 40.15043 | 13.03748 | 36990 ft | 453 kts | 175° |
| 2026-04-28 21:01 | 40.08828 | 13.05073 | 37000 ft | 452 kts | 175° |
| 2026-04-28 21:01 | 40.03626 | 13.06178 | 36981 ft | 452 kts | 175° |
| 2026-04-28 21:02 | 39.97416 | 13.07485 | 36981 ft | 452 kts | 175° |
| 2026-04-28 21:02 | 39.91245 | 13.08793 | 36998 ft | 452 kts | 175° |
| 2026-04-28 21:03 | 39.85029 | 13.10103 | 36995 ft | 452 kts | 175° |
| 2026-04-28 21:03 | 39.78824 | 13.11406 | 36980 ft | 452 kts | 175° |
| 2026-04-28 21:04 | 39.72615 | 13.12707 | 36984 ft | 452 kts | 175° |
| 2026-04-28 21:04 | 39.66405 | 13.14002 | 36979 ft | 452 kts | 175° |
| 2026-04-28 21:05 | 39.60201 | 13.15306 | 36977 ft | 452 kts | 175° |
| 2026-04-28 21:05 | 39.53975 | 13.16607 | 36985 ft | 452 kts | 175° |
| 2026-04-28 21:06 | 39.47760 | 13.17906 | 36975 ft | 452 kts | 176° |
| 2026-04-28 21:06 | 39.41584 | 13.19190 | 36962 ft | 452 kts | 176° |
| 2026-04-28 21:07 | 39.35370 | 13.20466 | 36954 ft | 452 kts | 176° |
| 2026-04-28 21:07 | 39.29160 | 13.21748 | 36964 ft | 452 kts | 176° |
| 2026-04-28 21:08 | 39.22959 | 13.23039 | 36937 ft | 451 kts | 176° |
| 2026-04-28 21:08 | 39.16775 | 13.24329 | 36947 ft | 450 kts | 176° |
| 2026-04-28 21:09 | 39.10593 | 13.25600 | 36945 ft | 450 kts | 176° |
| 2026-04-28 21:09 | 39.04408 | 13.26863 | 36936 ft | 450 kts | 176° |
| 2026-04-28 21:10 | 38.98225 | 13.28132 | 36935 ft | 450 kts | 176° |
| 2026-04-28 21:10 | 38.92086 | 13.29395 | 36940 ft | 450 kts | 176° |
| 2026-04-28 21:11 | 38.85907 | 13.30663 | 36923 ft | 449 kts | 176° |
| 2026-04-28 21:11 | 38.79729 | 13.31929 | 36917 ft | 449 kts | 176° |
| 2026-04-28 21:12 | 38.73563 | 13.33185 | 36627 ft | 446 kts | 176° |
| 2026-04-28 21:12 | 38.70499 | 13.33807 | 36366 ft | 447 kts | 176° |
| 2026-04-28 21:12 | 38.67416 | 13.34433 | 36116 ft | 449 kts | 176° |
| 2026-04-28 21:13 | 38.64331 | 13.35063 | 35867 ft | 450 kts | 176° |
| 2026-04-28 21:13 | 38.61239 | 13.35693 | 35619 ft | 451 kts | 176° |
| 2026-04-28 21:13 | 38.58131 | 13.36324 | 35360 ft | 451 kts | 176° |
| 2026-04-28 21:13 | 38.55032 | 13.36951 | 35118 ft | 452 kts | 176° |
| 2026-04-28 21:14 | 38.51926 | 13.37577 | 34880 ft | 452 kts | 176° |
| 2026-04-28 21:14 | 38.48818 | 13.38200 | 34642 ft | 453 kts | 176° |
| 2026-04-28 21:14 | 38.45699 | 13.38829 | 34405 ft | 453 kts | 176° |
| 2026-04-28 21:14 | 38.42589 | 13.39463 | 34170 ft | 452 kts | 176° |
| 2026-04-28 21:15 | 38.39531 | 13.40088 | 33924 ft | 450 kts | 176° |
| 2026-04-28 21:15 | 38.36401 | 13.40726 | 33642 ft | 449 kts | 176° |
| 2026-04-28 21:15 | 38.33364 | 13.41340 | 33355 ft | 446 kts | 176° |
| 2026-04-28 21:15 | 38.30298 | 13.41957 | 33096 ft | 444 kts | 176° |
| 2026-04-28 21:16 | 38.27256 | 13.42567 | 32834 ft | 442 kts | 176° |
| 2026-04-28 21:16 | 38.24224 | 13.43175 | 32574 ft | 440 kts | 176° |
| 2026-04-28 21:16 | 38.21199 | 13.43782 | 32317 ft | 439 kts | 176° |
| 2026-04-28 21:16 | 38.18188 | 13.44384 | 32068 ft | 437 kts | 176° |
| 2026-04-28 21:17 | 38.15185 | 13.44983 | 31810 ft | 436 kts | 176° |
| 2026-04-28 21:17 | 38.12199 | 13.45578 | 31559 ft | 434 kts | 176° |
| 2026-04-28 21:17 | 38.09213 | 13.46173 | 31301 ft | 432 kts | 176° |
| 2026-04-28 21:17 | 38.06248 | 13.46765 | 31060 ft | 431 kts | 176° |
| 2026-04-28 21:18 | 38.00377 | 13.47941 | 31058 ft | 430 kts | 176° |
| 2026-04-28 21:18 | 37.97422 | 13.48530 | 30837 ft | 429 kts | 176° |
| 2026-04-28 21:18 | 37.94444 | 13.49123 | 30740 ft | 427 kts | 176° |
| 2026-04-28 21:19 | 37.91531 | 13.49702 | 30599 ft | 429 kts | 176° |
| 2026-04-28 21:19 | 37.88592 | 13.50289 | 30359 ft | 428 kts | 177° |
| 2026-04-28 21:19 | 37.85663 | 13.50873 | 30127 ft | 426 kts | 177° |
| 2026-04-28 21:19 | 37.82742 | 13.51457 | 30054 ft | 424 kts | 177° |
| 2026-04-28 21:20 | 37.76906 | 13.52616 | 30075 ft | 425 kts | 177° |
| 2026-04-28 21:20 | 37.71066 | 13.53766 | 30076 ft | 425 kts | 177° |
| 2026-04-28 21:21 | 37.65218 | 13.54919 | 30081 ft | 425 kts | 177° |
| 2026-04-28 21:21 | 37.59372 | 13.56069 | 30079 ft | 425 kts | 177° |
| 2026-04-28 21:22 | 37.53531 | 13.57227 | 30081 ft | 425 kts | 177° |
| 2026-04-28 21:22 | 37.48680 | 13.58186 | 30082 ft | 425 kts | 177° |
| 2026-04-28 21:23 | 37.41896 | 13.59531 | 30077 ft | 425 kts | 177° |
| 2026-04-28 21:23 | 37.36069 | 13.60676 | 30078 ft | 423 kts | 178° |
| 2026-04-28 21:24 | 37.30258 | 13.61804 | 30073 ft | 422 kts | 178° |
| 2026-04-28 21:24 | 37.24451 | 13.62941 | 30073 ft | 422 kts | 178° |
| 2026-04-28 21:25 | 37.18659 | 13.64078 | 29262 ft | 417 kts | 178° |
| 2026-04-28 21:25 | 37.15847 | 13.64670 | 28803 ft | 403 kts | 174° |
| 2026-04-28 21:25 | 37.13192 | 13.65701 | 28357 ft | 398 kts | 163° |
| 2026-04-28 21:26 | 37.10747 | 13.67276 | 27901 ft | 394 kts | 153° |
| 2026-04-28 21:26 | 37.08532 | 13.69360 | 27455 ft | 401 kts | 145° |
| 2026-04-28 21:26 | 37.06410 | 13.71612 | 27010 ft | 399 kts | 144° |
| 2026-04-28 21:26 | 37.04293 | 13.73863 | 26582 ft | 398 kts | 144° |
| 2026-04-28 21:27 | 37.02188 | 13.76100 | 26146 ft | 397 kts | 144° |
| 2026-04-28 21:27 | 37.00083 | 13.78334 | 25719 ft | 396 kts | 144° |
| 2026-04-28 21:27 | 36.98012 | 13.80531 | 25303 ft | 394 kts | 144° |
| 2026-04-28 21:27 | 36.95930 | 13.82742 | 24877 ft | 393 kts | 143° |
| 2026-04-28 21:28 | 36.93844 | 13.84955 | 24455 ft | 391 kts | 143° |
| 2026-04-28 21:28 | 36.91771 | 13.87149 | 24023 ft | 391 kts | 143° |
| 2026-04-28 21:28 | 36.89698 | 13.89346 | 23571 ft | 390 kts | 143° |
| 2026-04-28 21:28 | 36.87631 | 13.91535 | 23075 ft | 388 kts | 143° |
| 2026-04-28 21:29 | 36.85583 | 13.93702 | 22633 ft | 385 kts | 143° |
| 2026-04-28 21:29 | 36.83546 | 13.95853 | 22193 ft | 382 kts | 143° |
| 2026-04-28 21:29 | 36.81518 | 13.97989 | 21722 ft | 381 kts | 143° |
| 2026-04-28 21:29 | 36.79499 | 14.00113 | 21267 ft | 379 kts | 143° |
| 2026-04-28 21:30 | 36.77486 | 14.02229 | 20791 ft | 378 kts | 143° |
| 2026-04-28 21:30 | 36.75482 | 14.04335 | 20333 ft | 377 kts | 143° |
| 2026-04-28 21:30 | 36.73478 | 14.06441 | 19858 ft | 376 kts | 143° |
| 2026-04-28 21:30 | 36.71476 | 14.08537 | 19388 ft | 375 kts | 143° |
| 2026-04-28 21:31 | 36.69482 | 14.10625 | 18922 ft | 374 kts | 143° |
| 2026-04-28 21:31 | 36.67497 | 14.12705 | 18451 ft | 373 kts | 142° |
| 2026-04-28 21:31 | 36.65513 | 14.14784 | 17938 ft | 372 kts | 142° |
| 2026-04-28 21:31 | 36.63535 | 14.16856 | 17457 ft | 369 kts | 142° |
| 2026-04-28 21:32 | 36.61576 | 14.18905 | 16994 ft | 366 kts | 142° |
| 2026-04-28 21:32 | 36.59634 | 14.20934 | 16537 ft | 364 kts | 142° |
| 2026-04-28 21:32 | 36.57701 | 14.22953 | 16078 ft | 362 kts | 142° |
| 2026-04-28 21:32 | 36.55823 | 14.24915 | 15614 ft | 360 kts | 142° |
| 2026-04-28 21:33 | 36.53915 | 14.26909 | 15357 ft | 358 kts | 142° |
| 2026-04-28 21:33 | 36.52020 | 14.28883 | 14536 ft | 361 kts | 144° |
| 2026-04-28 21:33 | 36.49930 | 14.30521 | 14241 ft | 351 kts | 157° |
| 2026-04-28 21:33 | 36.47659 | 14.31523 | 13824 ft | 344 kts | 171° |
| 2026-04-28 21:34 | 36.45318 | 14.32061 | 13356 ft | 341 kts | 173° |
| 2026-04-28 21:34 | 36.42992 | 14.32579 | 12920 ft | 338 kts | 173° |
| 2026-04-28 21:34 | 36.40680 | 14.33098 | 12489 ft | 336 kts | 173° |
| 2026-04-28 21:34 | 36.38384 | 14.33617 | 12068 ft | 334 kts | 172° |
| 2026-04-28 21:35 | 36.36100 | 14.34135 | 11641 ft | 333 kts | 172° |
| 2026-04-28 21:35 | 36.33826 | 14.34650 | 11225 ft | 331 kts | 172° |
| 2026-04-28 21:35 | 36.31567 | 14.35159 | 10802 ft | 330 kts | 172° |
| 2026-04-28 21:35 | 36.29310 | 14.35666 | 10383 ft | 329 kts | 172° |
| 2026-04-28 21:36 | 36.27079 | 14.36169 | 10162 ft | 321 kts | 172° |
| 2026-04-28 21:36 | 36.24929 | 14.36657 | 9973 ft | 306 kts | 172° |
| 2026-04-28 21:36 | 36.22844 | 14.37129 | 9633 ft | 301 kts | 172° |
| 2026-04-28 21:36 | 36.20799 | 14.37587 | 9019 ft | 297 kts | 172° |
| 2026-04-28 21:37 | 36.18796 | 14.38033 | 8435 ft | 294 kts | 172° |
| 2026-04-28 21:37 | 36.16768 | 14.38488 | 7781 ft | 293 kts | 172° |
| 2026-04-28 21:37 | 36.14806 | 14.38929 | 7512 ft | 279 kts | 172° |
| 2026-04-28 21:37 | 36.12967 | 14.39273 | 7243 ft | 265 kts | 181° |
| 2026-04-28 21:38 | 36.11150 | 14.38968 | 7051 ft | 256 kts | 200° |
| 2026-04-28 21:38 | 36.09569 | 14.38018 | 6749 ft | 256 kts | 216° |
| 2026-04-28 21:38 | 36.08274 | 14.36541 | 6450 ft | 255 kts | 226° |
| 2026-04-28 21:38 | 36.07034 | 14.35001 | 5953 ft | 253 kts | 225° |
| 2026-04-28 21:39 | 36.05782 | 14.33478 | 5419 ft | 253 kts | 224° |
| 2026-04-28 21:39 | 36.04467 | 14.32069 | 5004 ft | 246 kts | 212° |
| 2026-04-28 21:39 | 36.02924 | 14.31191 | 4472 ft | 247 kts | 193° |
| 2026-04-28 21:39 | 36.01225 | 14.30972 | 4172 ft | 245 kts | 175° |
| 2026-04-28 21:40 | 35.99587 | 14.31399 | 3928 ft | 239 kts | 158° |
| 2026-04-28 21:40 | 35.98149 | 14.32398 | 3657 ft | 237 kts | 141° |
| 2026-04-28 21:40 | 35.96963 | 14.33802 | 3363 ft | 236 kts | 134° |
| 2026-04-28 21:40 | 35.95814 | 14.35238 | 3046 ft | 232 kts | 134° |
| 2026-04-28 21:41 | 35.94705 | 14.36620 | 2758 ft | 221 kts | 134° |
| 2026-04-28 21:41 | 35.93645 | 14.37939 | 2476 ft | 211 kts | 135° |
| 2026-04-28 21:41 | 35.92640 | 14.39189 | 2201 ft | 197 kts | 135° |
| 2026-04-28 21:41 | 35.91721 | 14.40331 | 1957 ft | 181 kts | 135° |
| 2026-04-28 21:42 | 35.90872 | 14.41388 | 1732 ft | 166 kts | 135° |
| 2026-04-28 21:42 | 35.90100 | 14.42346 | 1512 ft | 150 kts | 135° |
| 2026-04-28 21:42 | 35.89401 | 14.43215 | 1327 ft | 136 kts | 134° |
| 2026-04-28 21:42 | 35.88769 | 14.43999 | 1156 ft | 123 kts | 133° |
| 2026-04-28 21:43 | 35.88177 | 14.44733 | 982 ft | 119 kts | 131° |
| 2026-04-28 21:43 | 35.87594 | 14.45456 | 811 ft | 120 kts | 131° |
| 2026-04-28 21:43 | 35.86994 | 14.46204 | 663 ft | 124 kts | 131° |
| 2026-04-28 21:43 | 35.86381 | 14.46962 | 510 ft | 125 kts | 134° |
| 2026-04-28 21:44 | 35.85765 | 14.47720 | 355 ft | 127 kts | 132° |
| 2026-04-28 21:44 | 35.85155 | 14.48477 | 256 ft | 115 kts | 133° |
| 2026-04-28 21:44 | 35.84769 | 14.48964 | 250 ft | 37 kts | 135° |
| 2026-04-28 21:44 | 35.84629 | 14.49144 | 250 ft | 28 kts | 134° |
| 2026-04-28 21:45 | 35.84504 | 14.49322 | 251 ft | 28 kts | 114° |
| 2026-04-28 21:45 | 35.84446 | 14.49502 | 252 ft | 15 kts | 97° |
| 2026-04-28 21:45 | 35.84458 | 14.49557 | 251 ft | 0 kts | 50° |
| 2026-04-28 21:47 | 35.84465 | 14.49563 | 251 ft | 4 kts | 32° |
| 2026-04-28 21:47 | 35.84535 | 14.49554 | 251 ft | 17 kts | 324° |
| 2026-04-28 21:47 | 35.84602 | 14.49558 | 251 ft | 8 kts | 49° |
| 2026-04-28 21:47 | 35.84662 | 14.49577 | 251 ft | 11 kts | 342° |
| 2026-04-28 21:48 | 35.84738 | 14.49516 | 251 ft | 17 kts | 315° |
| 2026-04-28 21:48 | 35.84845 | 14.49384 | 250 ft | 25 kts | 315° |
| 2026-04-28 21:48 | 35.84929 | 14.49281 | 251 ft | 7 kts | 326° |
| 2026-04-28 21:48 | 35.84959 | 14.49274 | 250 ft | 3 kts | 358° |
| 2026-04-28 21:49 | 35.84980 | 14.49274 | 250 ft | 2 kts | 360° |
| 2026-04-28 21:49 | 35.84986 | 14.49274 | 250 ft | 0 kts | 360° |